createdAt,value
2022-09-23T00:03:02.666Z,19.1
2022-09-23T00:08:01.507Z,20.0
2022-09-23T00:13:02.691Z,19.8
2022-09-23T00:18:01.532Z,20.6
2022-09-23T00:23:01.693Z,18.6
2022-09-23T00:28:01.509Z,17.9
2022-09-23T00:33:01.548Z,16.9
2022-09-23T00:38:01.550Z,16.1
2022-09-23T00:43:01.529Z,15.2
2022-09-23T00:48:01.527Z,16.9
2022-09-23T00:53:01.631Z,17.4
2022-09-23T00:58:01.568Z,17.6
2022-09-23T01:03:01.544Z,18.0
2022-09-23T01:08:01.511Z,17.9
2022-09-23T01:35:07.755Z,10.2
2022-09-23T01:40:01.411Z,12.7
2022-09-23T01:45:09.265Z,14.1
2022-09-23T02:00:08.264Z,14.6
2022-09-23T02:05:01.406Z,14.2
2022-09-23T02:10:01.453Z,13.6
2022-09-23T02:15:04.029Z,13.8
2022-09-23T02:20:01.436Z,13.2
2022-09-23T02:25:01.470Z,13.1
2022-09-23T02:30:08.881Z,13.1
2022-09-23T02:35:01.418Z,12.6
2022-09-23T02:40:17.229Z,12.2
2022-09-23T02:45:01.767Z,12.8
2022-09-23T02:50:01.216Z,11.1
2022-09-23T02:55:01.179Z,12.3
2022-09-23T03:00:03.104Z,13.2
2022-09-23T03:05:06.760Z,12.7
2022-09-23T03:10:00.928Z,13.1
2022-09-23T03:15:16.682Z,15.2
2022-09-23T03:20:00.943Z,14.0
2022-09-23T03:30:02.777Z,14.7
2022-09-23T03:35:01.487Z,14.4
2022-09-23T03:45:04.232Z,14.6
2022-09-23T03:50:01.310Z,15.0
2022-09-23T03:55:01.459Z,15.4
2022-09-23T04:00:04.059Z,15.7
2022-09-23T04:10:01.465Z,15.6
2022-09-23T04:15:02.671Z,15.0
2022-09-23T04:20:01.398Z,13.9
2022-09-23T04:25:01.465Z,13.0
2022-09-23T04:30:02.600Z,12.7
2022-09-23T04:35:01.518Z,16.5
2022-09-23T04:40:01.502Z,17.8
2022-09-23T04:45:01.997Z,20.1
2022-09-23T04:50:01.499Z,22.7
2022-09-23T04:55:01.539Z,24.0
2022-09-23T05:00:02.402Z,21.4
2022-09-23T05:05:09.920Z,20.6
2022-09-23T05:10:01.531Z,19.3
2022-09-23T05:15:02.087Z,19.0
2022-09-23T05:20:02.222Z,19.6
2022-09-23T05:25:01.454Z,21.9
2022-09-23T05:30:01.891Z,23.4
2022-09-23T05:35:01.464Z,25.0
2022-09-23T05:40:02.036Z,24.9
2022-09-23T05:45:01.858Z,24.4
2022-09-23T05:50:01.442Z,22.4
2022-09-23T05:55:02.009Z,22.3
2022-09-23T06:00:02.784Z,23.6
2022-09-23T06:05:01.862Z,24.1
2022-09-23T06:10:02.012Z,25.1
2022-09-23T06:15:02.057Z,25.4
2022-09-23T06:20:02.203Z,25.0
2022-09-23T06:25:02.038Z,24.1
2022-09-23T06:30:01.870Z,23.2
2022-09-23T06:35:01.530Z,22.2
2022-09-23T06:45:02.196Z,22.7
2022-09-23T06:50:02.941Z,22.4
2022-09-23T06:55:01.893Z,23.6
2022-09-23T07:00:02.244Z,24.1
2022-09-23T07:05:01.758Z,23.5
2022-09-23T07:10:01.245Z,23.0
2022-09-23T07:15:02.110Z,22.8
2022-09-23T07:20:02.503Z,21.4
2022-09-23T07:25:00.987Z,20.6
2022-09-23T07:30:01.969Z,20.3
2022-09-23T07:35:01.877Z,19.8
2022-09-23T07:40:02.281Z,18.8
2022-09-23T07:45:02.101Z,19.3
2022-09-23T07:50:02.106Z,19.7
2022-09-23T07:55:03.033Z,19.4
2022-09-23T08:00:02.692Z,18.8
2022-09-23T08:05:01.992Z,19.3
2022-09-23T08:10:02.499Z,19.0
2022-09-23T08:15:01.818Z,18.7
2022-09-23T08:20:01.485Z,18.8
2022-09-23T08:25:01.492Z,18.9
2022-09-23T08:30:02.059Z,18.2
2022-09-23T08:35:01.530Z,17.0
2022-09-23T08:40:01.539Z,16.9
2022-09-23T08:45:04.180Z,16.2
2022-09-23T08:50:01.867Z,15.6
2022-09-23T08:55:01.583Z,15.5
2022-09-23T09:00:02.944Z,15.0
2022-09-23T09:05:06.446Z,14.6
2022-09-23T09:10:01.525Z,13.9
2022-09-23T09:15:17.131Z,13.3
2022-09-23T09:20:01.497Z,13.1
2022-09-23T09:25:01.458Z,12.3
2022-09-23T09:30:01.876Z,11.8
2022-09-23T09:35:01.433Z,12.0
2022-09-23T09:40:01.482Z,12.1
2022-09-23T09:45:04.925Z,11.1
2022-09-23T09:50:07.034Z,10.9
2022-09-23T09:55:01.388Z,9.9
2022-09-23T10:00:16.841Z,7.8
2022-09-23T10:05:01.358Z,7.0
2022-09-23T10:10:15.867Z,5.8
2022-09-23T10:15:02.127Z,5.1
2022-09-23T10:20:01.376Z,4.5
2022-09-23T10:25:01.383Z,5.0
2022-09-23T10:30:03.669Z,4.0
2022-09-23T10:35:01.441Z,3.9
2022-09-23T10:40:12.710Z,4.2
2022-09-23T10:45:16.284Z,4.4
2022-09-23T10:50:07.453Z,3.9
2022-09-23T11:00:12.156Z,3.9
2022-09-23T11:05:01.550Z,3.3
2022-09-23T11:10:23.536Z,2.8
2022-09-23T11:15:14.761Z,3.0
2022-09-23T11:25:01.517Z,2.8
2022-09-23T11:30:06.612Z,2.9
2022-09-23T11:35:17.113Z,3.1
2022-09-23T11:40:01.501Z,3.2
2022-09-23T11:45:07.723Z,3.3
2022-09-23T11:50:01.509Z,3.1
2022-09-23T11:55:04.223Z,3.3
2022-09-23T12:00:04.115Z,3.1
2022-09-23T12:05:08.248Z,3.3
2022-09-23T12:10:01.375Z,3.2
2022-09-23T12:15:06.340Z,3.6
2022-09-23T12:25:01.507Z,4.0
2022-09-23T12:30:04.351Z,3.6
2022-09-23T12:35:01.378Z,3.5
2022-09-23T12:40:01.410Z,3.4
2022-09-23T12:45:17.130Z,3.2
2022-09-23T12:50:01.492Z,2.2
2022-09-23T12:55:01.474Z,2.6
2022-09-23T13:00:17.032Z,2.6
2022-09-23T13:10:01.521Z,2.5
2022-09-23T13:15:03.690Z,3.2
2022-09-23T13:30:16.252Z,3.2
2022-09-23T13:35:01.486Z,3.3
2022-09-23T13:40:01.386Z,3.4
2022-09-23T13:45:02.124Z,3.6
2022-09-23T13:50:01.542Z,3.8
2022-09-23T13:55:01.544Z,4.0
2022-09-23T14:00:17.576Z,4.0
2022-09-23T14:05:01.512Z,4.1
2022-09-23T14:10:01.619Z,3.8
2022-09-23T14:15:02.126Z,3.7
2022-09-23T14:20:01.498Z,3.6
2022-09-23T14:30:03.190Z,3.6
2022-09-23T14:35:01.555Z,4.0
2022-09-23T14:40:04.319Z,4.6
2022-09-23T14:45:04.188Z,4.8
2022-09-23T14:50:01.407Z,5.3
2022-09-23T14:55:01.633Z,5.4
2022-09-23T15:00:12.816Z,5.3
2022-09-23T15:05:01.158Z,4.7
2022-09-23T15:15:01.405Z,4.5
2022-09-23T15:20:04.042Z,4.0
2022-09-23T15:25:01.543Z,4.2
2022-09-23T15:30:14.654Z,4.0
2022-09-23T15:35:01.627Z,4.4
2022-09-23T15:40:01.567Z,4.8
2022-09-23T15:45:02.080Z,4.8
2022-09-23T15:50:01.601Z,4.4
2022-09-23T15:55:01.606Z,5.0
2022-09-23T16:00:02.229Z,4.7
2022-09-23T16:05:02.055Z,4.8
2022-09-23T16:11:01.558Z,5.0
2022-09-23T16:16:02.332Z,5.4
2022-09-23T16:21:02.003Z,5.8
2022-09-23T16:26:03.778Z,7.3
2022-09-23T16:31:01.577Z,8.1
2022-09-23T16:36:01.548Z,9.0
2022-09-23T16:41:01.759Z,11.0
2022-09-23T16:46:01.625Z,11.8
2022-09-23T16:51:03.138Z,11.5
2022-09-23T17:01:01.582Z,12.6
2022-09-23T17:06:05.886Z,12.4
2022-09-23T17:11:02.053Z,13.1
2022-09-23T17:16:02.176Z,14.4
2022-09-23T17:21:03.650Z,20.1
2022-09-23T17:26:01.972Z,21.2
2022-09-23T17:31:03.003Z,22.8
2022-09-23T17:36:06.611Z,24.7
2022-09-23T17:41:02.000Z,28.9
2022-09-23T17:46:04.202Z,28.5
2022-09-23T17:51:01.545Z,29.8
2022-09-23T17:56:01.537Z,33.5
2022-09-23T18:01:01.613Z,34.4
2022-09-23T18:06:06.825Z,33.2
2022-09-23T18:11:01.801Z,33.0
2022-09-23T18:16:01.605Z,34.1
2022-09-23T18:21:01.547Z,32.7
2022-09-23T18:26:01.508Z,35.2
2022-09-23T18:31:01.513Z,36.0
2022-09-23T18:36:07.218Z,34.4
2022-09-23T18:41:01.631Z,34.1
2022-09-23T18:46:01.587Z,33.9
2022-09-23T18:51:01.706Z,35.0
2022-09-23T18:56:06.431Z,37.1
2022-09-23T19:01:01.637Z,40.8
2022-09-23T19:06:01.533Z,41.8
2022-09-23T19:11:01.504Z,44.0
2022-09-23T19:16:01.631Z,41.2
2022-09-23T19:21:06.280Z,39.2
2022-09-23T19:26:01.508Z,37.6
2022-09-23T19:31:01.512Z,38.0
2022-09-23T19:36:01.574Z,37.2
2022-09-23T19:46:01.522Z,36.5
2022-09-23T19:51:01.540Z,35.7
2022-09-23T19:56:01.558Z,35.4
2022-09-23T20:01:01.451Z,34.4
2022-09-23T20:06:01.391Z,35.2
2022-09-23T20:11:01.318Z,34.8
2022-09-23T20:16:02.349Z,34.2
2022-09-23T20:21:01.243Z,33.2
2022-09-23T20:26:01.220Z,33.5
2022-09-23T20:31:01.391Z,34.1
2022-09-23T20:36:01.509Z,34.7
2022-09-23T20:41:01.577Z,36.0
2022-09-23T20:46:02.677Z,37.9
2022-09-23T20:51:01.550Z,37.8
2022-09-23T20:56:01.571Z,36.8
2022-09-23T21:01:01.746Z,37.8
2022-09-23T21:06:01.593Z,38.7
2022-09-23T21:11:01.556Z,36.9
2022-09-23T21:16:01.356Z,36.8
2022-09-23T21:21:02.532Z,37.4
2022-09-23T21:26:01.525Z,36.3
2022-09-23T21:31:01.601Z,36.4
2022-09-23T21:36:01.566Z,38.4
2022-09-23T21:51:01.547Z,38.0
2022-09-23T21:56:06.565Z,36.5
2022-09-23T22:01:01.617Z,33.3
2022-09-23T22:06:01.668Z,32.4
2022-09-23T22:11:01.538Z,30.0
2022-09-23T22:16:01.605Z,27.6
2022-09-23T22:21:01.651Z,27.0
2022-09-23T22:26:03.311Z,28.2
2022-09-23T22:31:01.603Z,28.5
2022-09-23T22:36:01.556Z,29.0
2022-09-23T22:41:01.603Z,30.3
2022-09-23T22:46:01.381Z,29.7
2022-09-23T22:51:01.430Z,29.0
2022-09-23T22:56:01.301Z,27.6
2022-09-23T23:01:01.245Z,27.0
2022-09-23T23:06:01.231Z,26.1
2022-09-23T23:11:01.186Z,25.9
2022-09-23T23:16:01.288Z,25.2
2022-09-23T23:21:01.633Z,25.0
2022-09-23T23:26:01.460Z,24.0
2022-09-23T23:31:01.114Z,24.8
2022-09-23T23:36:01.564Z,24.1
2022-09-23T23:41:01.554Z,24.0
2022-09-23T23:51:01.455Z,24.7
2022-09-23T23:56:01.637Z,24.8
